Time;durP1;ratioP1;P1;durP2;ratioP2;P2;SDS_P1;SDS_P2;PMS_P1;PMS_P2;Temp;Humidity;BMP_temperature;BMP_pressure;BME280_temperature;BME280_humidity;BME280_pressure;Samples;Min_cycle;Max_cycle;Signal;HPM_P1;HPM_P2
2021/04/25 00:01:47;;;;;;;7.33;4.90;;;;;;;8.40;72.24;100838.47;617173;229;23714;-74
2021/04/25 00:04:15;;;;;;;9.37;5.37;;;;;;;8.39;72.83;100832.11;623232;229;24854;-74
2021/04/25 00:06:43;;;;;;;7.50;4.80;;;;;;;8.39;72.45;100842.47;614620;229;24860;-74
2021/04/25 00:09:11;;;;;;;12.63;5.47;;;;;;;8.25;72.98;100835.23;634708;225;25849;-74
2021/04/25 00:11:38;;;;;;;8.23;5.30;;;;;;;8.31;72.43;100838.67;610788;229;33255;-74
2021/04/25 00:14:06;;;;;;;9.77;5.13;;;;;;;8.24;72.35;100836.17;618886;229;24973;-74
2021/04/25 00:16:34;;;;;;;12.23;5.30;;;;;;;8.19;73.04;100838.30;616552;229;24856;-74
2021/04/25 00:19:04;;;;;;;11.43;6.03;;;;;;;8.14;72.95;100839.55;628244;228;24852;-74
2021/04/25 00:21:30;;;;;;;8.67;5.27;;;;;;;8.20;73.09;100850.30;628423;228;24895;-74
2021/04/25 00:23:58;;;;;;;7.97;5.57;;;;;;;8.15;72.63;100842.03;625770;225;24888;-74
2021/04/25 00:26:26;;;;;;;8.70;5.80;;;;;;;8.12;72.74;100844.85;628748;225;24879;-74
2021/04/25 00:28:54;;;;;;;7.77;5.47;;;;;;;8.13;72.64;100839.20;619400;229;26112;-74
2021/04/25 00:31:22;;;;;;;13.67;5.40;;;;;;;8.10;72.66;100844.14;628441;225;24828;-74
2021/04/25 00:33:49;;;;;;;17.07;6.13;;;;;;;8.15;73.11;100837.31;625894;225;32995;-74
2021/04/25 00:36:17;;;;;;;12.30;6.70;;;;;;;8.24;72.70;100831.46;627762;225;32888;-74
2021/04/25 00:38:45;;;;;;;11.67;6.30;;;;;;;8.19;72.12;100830.98;632009;225;24928;-74
2021/04/25 00:41:13;;;;;;;7.90;5.87;;;;;;;8.17;72.16;100827.22;630875;225;24856;-74
2021/04/25 00:43:41;;;;;;;9.07;5.50;;;;;;;8.13;71.90;100827.07;635382;225;25178;-74
2021/04/25 00:46:09;;;;;;;10.17;4.93;;;;;;;8.07;72.25;100819.77;631570;225;25147;-74
2021/04/25 00:48:37;;;;;;;9.00;5.77;;;;;;;8.09;72.17;100822.24;630461;222;32729;-74
2021/04/25 00:51:05;;;;;;;10.05;6.30;;;;;;;8.10;71.97;100830.37;630305;225;32740;-74
2021/04/25 00:53:33;;;;;;;10.70;5.47;;;;;;;8.02;72.74;100821.42;638624;224;23681;-74
2021/04/25 00:56:01;;;;;;;8.70;5.70;;;;;;;8.01;72.19;100833.16;638155;225;25156;-74
2021/04/25 00:58:29;;;;;;;11.27;6.20;;;;;;;7.96;73.00;100830.91;637423;223;31238;-74
2021/04/25 01:00:57;;;;;;;9.37;5.90;;;;;;;7.90;73.18;100821.49;617663;228;24858;-74
2021/04/25 01:03:25;;;;;;;9.30;5.03;;;;;;;7.88;72.95;100822.05;622003;229;24900;-74
2021/04/25 01:05:56;;;;;;;11.23;6.07;;;;;;;7.86;73.16;100812.27;625124;227;24904;-74
2021/04/25 01:08:24;;;;;;;7.90;5.63;;;;;;;7.86;72.67;100816.16;637689;224;24846;-73
2021/04/25 01:10:52;;;;;;;12.33;6.60;;;;;;;7.85;72.51;100817.09;620979;225;43900;-74
2021/04/25 01:13:20;;;;;;;10.00;5.37;;;;;;;7.74;72.90;100821.33;627854;227;24863;-74
2021/04/25 01:15:48;;;;;;;9.97;6.30;;;;;;;7.81;72.80;100818.27;627988;225;32950;-74
2021/04/25 01:18:16;;;;;;;10.20;5.40;;;;;;;7.71;72.97;100815.05;616474;229;24940;-74
2021/04/25 01:20:44;;;;;;;9.60;6.17;;;;;;;7.65;73.29;100819.86;637467;225;24841;-74
2021/04/25 01:23:11;;;;;;;8.80;6.13;;;;;;;7.70;73.72;100821.17;630762;225;32897;-74
2021/04/25 01:25:39;;;;;;;12.90;6.23;;;;;;;7.59;73.98;100815.94;634776;225;27034;-74
2021/04/25 01:28:07;;;;;;;8.40;5.53;;;;;;;7.51;74.19;100824.73;632130;225;24795;-74
2021/04/25 01:30:35;;;;;;;10.00;6.20;;;;;;;7.47;74.38;100824.61;634824;225;24840;-74
2021/04/25 01:33:03;;;;;;;12.53;6.30;;;;;;;7.44;74.32;100829.52;637205;223;24899;-74
2021/04/25 01:35:31;;;;;;;11.40;6.20;;;;;;;7.46;74.75;100830.73;624895;225;32897;-74
2021/04/25 01:37:59;;;;;;;15.27;6.33;;;;;;;7.48;74.11;100824.97;626651;226;24857;-74
2021/04/25 01:40:26;;;;;;;7.77;5.50;;;;;;;7.45;74.15;100827.75;620044;229;24923;-74
2021/04/25 01:42:54;;;;;;;10.73;6.03;;;;;;;7.40;74.51;100832.44;614842;229;32986;-73
2021/04/25 01:45:22;;;;;;;20.20;6.63;;;;;;;7.35;74.80;100831.48;622050;229;24890;-74
2021/04/25 01:47:50;;;;;;;10.00;6.20;;;;;;;7.30;75.26;100833.55;625816;228;24893;-74
2021/04/25 01:50:18;;;;;;;9.97;6.03;;;;;;;7.35;74.90;100833.25;622884;228;32855;-74
2021/04/25 01:52:46;;;;;;;14.80;6.33;;;;;;;7.30;74.68;100830.14;637948;225;24855;-74
2021/04/25 01:55:14;;;;;;;14.40;6.63;;;;;;;7.29;75.34;100828.48;630857;225;24891;-74
2021/04/25 01:57:42;;;;;;;14.40;6.37;;;;;;;7.34;74.46;100825.12;626651;225;24911;-74
2021/04/25 02:00:11;;;;;;;11.43;6.80;;;;;;;7.37;74.35;100822.31;627639;225;43966;-74
2021/04/25 02:02:39;;;;;;;7.70;5.27;;;;;;;7.31;74.40;100818.85;636591;225;24882;-74
2021/04/25 02:05:08;;;;;;;9.20;5.40;;;;;;;7.23;74.76;100810.36;631369;225;24866;-74
2021/04/25 02:07:36;;;;;;;9.73;6.17;;;;;;;7.22;75.49;100819.53;616363;228;27074;-74
2021/04/25 02:10:04;;;;;;;10.70;6.27;;;;;;;7.22;75.45;100816.94;608526;229;32921;-74
2021/04/25 02:12:32;;;;;;;11.80;6.80;;;;;;;7.23;74.97;100808.24;610587;229;32926;-74
2021/04/25 02:15:00;;;;;;;10.70;5.80;;;;;;;7.15;75.31;100813.48;635128;225;24770;-74
2021/04/25 02:17:28;;;;;;;12.33;6.20;;;;;;;7.11;75.10;100808.16;622257;229;24879;-74
2021/04/25 02:19:56;;;;;;;12.40;5.80;;;;;;;7.03;75.60;100803.16;619334;230;24935;-74
2021/04/25 02:22:24;;;;;;;10.30;5.60;;;;;;;7.05;75.55;100807.78;631125;225;24864;-74
2021/04/25 02:24:52;;;;;;;10.27;5.60;;;;;;;6.98;76.07;100808.67;626384;225;27985;-74
2021/04/25 02:27:20;;;;;;;10.50;5.80;;;;;;;6.93;76.10;100813.34;613601;230;24905;-74
2021/04/25 02:29:48;;;;;;;13.73;5.40;;;;;;;7.00;75.44;100800.33;625662;225;24848;-73
2021/04/25 02:32:15;;;;;;;12.23;5.77;;;;;;;6.99;76.29;100803.85;632655;225;24858;-73
2021/04/25 02:34:43;;;;;;;12.00;6.60;;;;;;;7.00;76.08;100802.92;626157;222;32947;-74
2021/04/25 02:37:11;;;;;;;9.30;6.00;;;;;;;6.98;75.91;100802.20;626017;225;24849;-73
2021/04/25 02:39:39;;;;;;;8.50;5.30;;;;;;;6.86;76.30;100801.77;629935;221;24836;-73
2021/04/25 02:42:07;;;;;;;9.67;5.27;;;;;;;6.85;76.19;100802.70;626180;225;24851;-73
2021/04/25 02:44:35;;;;;;;16.67;6.00;;;;;;;6.78;76.46;100808.77;625564;226;24851;-73
2021/04/25 02:47:02;;;;;;;9.43;5.60;;;;;;;6.80;76.26;100803.49;615365;229;24903;-73
2021/04/25 02:49:30;;;;;;;12.50;6.23;;;;;;;6.85;76.02;100816.45;616695;225;33629;-73
2021/04/25 02:51:58;;;;;;;8.40;6.20;;;;;;;6.84;76.29;100815.27;635218;225;24831;-73
2021/04/25 02:54:26;;;;;;;9.40;6.30;;;;;;;6.77;76.12;100812.77;634761;225;24916;-73
2021/04/25 02:56:54;;;;;;;10.90;6.00;;;;;;;6.69;76.44;100805.52;614904;229;24910;-74
2021/04/25 02:59:22;;;;;;;9.37;5.70;;;;;;;6.66;76.73;100806.20;625315;225;24799;-73
2021/04/25 03:01:50;;;;;;;11.40;6.42;;;;;;;6.74;76.16;100800.02;630072;225;32786;-73
2021/04/25 03:04:17;;;;;;;9.90;5.83;;;;;;;6.67;76.17;100803.51;637340;225;23690;-73
2021/04/25 03:06:45;;;;;;;11.70;6.23;;;;;;;6.64;76.36;100805.48;624707;229;24903;-73
2021/04/25 03:09:13;;;;;;;11.93;6.30;;;;;;;6.60;76.97;100810.02;631917;225;24847;-73
2021/04/25 03:11:41;;;;;;;11.67;6.60;;;;;;;6.59;77.02;100810.13;634301;225;24901;-74
2021/04/25 03:14:09;;;;;;;12.40;6.10;;;;;;;6.66;76.12;100810.08;631210;225;32898;-73
2021/04/25 03:16:37;;;;;;;9.37;6.23;;;;;;;6.55;76.66;100812.09;617839;230;23718;-73
2021/04/25 03:19:05;;;;;;;9.00;5.90;;;;;;;6.45;77.27;100813.64;623264;225;24860;-74
2021/04/25 03:21:32;;;;;;;6.63;5.40;;;;;;;6.34;77.74;100816.15;614177;229;25904;-73
2021/04/25 03:24:00;;;;;;;11.13;5.77;;;;;;;6.33;77.98;100823.05;619644;229;24898;-73
2021/04/25 03:26:28;;;;;;;9.53;6.27;;;;;;;6.17;77.88;100828.88;635771;224;24808;-73
2021/04/25 03:28:56;;;;;;;8.33;5.93;;;;;;;6.08;78.43;100825.62;637947;224;24890;-73
2021/04/25 03:31:24;;;;;;;10.57;6.00;;;;;;;6.06;79.04;100831.36;637933;224;24791;-73
2021/04/25 03:33:52;;;;;;;9.73;5.80;;;;;;;6.04;78.30;100837.89;616792;228;24875;-73
2021/04/25 03:36:20;;;;;;;12.70;6.00;;;;;;;5.99;78.30;100832.21;637123;225;24814;-73
2021/04/25 03:38:48;;;;;;;15.50;6.00;;;;;;;6.00;79.02;100831.75;621236;229;24879;-73
2021/04/25 03:41:16;;;;;;;11.17;5.97;;;;;;;5.97;78.38;100828.08;620774;229;28111;-73
2021/04/25 03:43:43;;;;;;;14.93;5.80;;;;;;;5.97;78.33;100834.53;615635;229;24911;-74
2021/04/25 03:46:11;;;;;;;11.20;5.93;;;;;;;5.94;78.50;100829.94;635978;225;24806;-74
2021/04/25 03:48:39;;;;;;;10.80;6.50;;;;;;;5.90;79.23;100831.05;625434;229;24895;-73
2021/04/25 03:51:07;;;;;;;10.73;5.40;;;;;;;5.81;78.99;100836.79;631400;225;27962;-73
2021/04/25 03:53:35;;;;;;;8.60;5.67;;;;;;;5.73;79.30;100833.03;625565;228;24871;-73
2021/04/25 03:56:03;;;;;;;12.93;6.03;;;;;;;5.55;80.34;100841.03;626350;226;24857;-73
2021/04/25 03:58:31;;;;;;;10.47;6.20;;;;;;;5.48;80.98;100846.20;627808;226;25203;-73
2021/04/25 04:00:58;;;;;;;11.37;6.13;;;;;;;5.43;81.08;100847.43;627502;226;24920;-73
2021/04/25 04:03:27;;;;;;;14.70;6.77;;;;;;;5.43;80.94;100846.14;628395;225;24851;-73
2021/04/25 04:05:55;;;;;;;12.37;5.40;;;;;;;5.41;81.10;100859.14;636527;225;26089;-73
2021/04/25 04:08:23;;;;;;;10.50;6.60;;;;;;;5.61;80.74;100852.24;629547;225;32997;-73
2021/04/25 04:10:51;;;;;;;10.38;6.20;;;;;;;5.63;80.66;100841.39;629271;222;33306;-73
2021/04/25 04:13:19;;;;;;;12.05;6.75;;;;;;;5.58;80.12;100842.59;612847;229;32869;-73
2021/04/25 04:15:47;;;;;;;9.83;6.60;;;;;;;5.53;81.00;100851.09;637271;224;23716;-73
2021/04/25 04:18:15;;;;;;;11.28;6.22;;;;;;;5.60;80.37;100849.77;631746;224;32722;-74
2021/04/25 04:20:43;;;;;;;13.30;6.13;;;;;;;5.56;80.50;100852.19;639326;224;23704;-73
2021/04/25 04:23:10;;;;;;;10.00;6.17;;;;;;;5.50;80.63;100858.56;637493;224;24810;-73
2021/04/25 04:25:38;;;;;;;10.60;6.80;;;;;;;5.54;80.02;100852.75;636066;225;24865;-73
2021/04/25 04:28:06;;;;;;;12.60;6.47;;;;;;;5.59;80.45;100854.09;619966;229;24963;-73
2021/04/25 04:30:34;;;;;;;7.70;5.63;;;;;;;5.62;79.56;100860.81;635272;225;24809;-73
2021/04/25 04:33:02;;;;;;;9.67;6.53;;;;;;;5.65;79.78;100856.77;614300;229;24930;-73
2021/04/25 04:35:30;;;;;;;9.67;5.70;;;;;;;5.77;79.19;100852.12;633888;225;24925;-73
2021/04/25 04:37:58;;;;;;;9.63;5.03;;;;;;;5.82;79.21;100846.19;616472;229;25149;-74
2021/04/25 04:40:26;;;;;;;8.87;5.43;;;;;;;5.91;78.79;100842.20;636160;225;24755;-74
2021/04/25 04:42:53;;;;;;;10.30;5.50;;;;;;;5.93;78.32;100845.06;637600;225;25224;-73
2021/04/25 04:45:21;;;;;;;12.73;5.50;;;;;;;6.01;78.21;100856.63;637234;225;24861;-73
2021/04/25 04:47:49;;;;;;;12.20;6.63;;;;;;;6.05;78.39;100851.63;636265;224;24865;-73
2021/04/25 04:50:17;;;;;;;9.90;5.13;;;;;;;6.04;78.50;100855.96;637807;225;24802;-73
2021/04/25 04:52:45;;;;;;;11.40;6.00;;;;;;;6.10;77.71;100862.50;635357;225;25921;-73
2021/04/25 04:55:13;;;;;;;12.17;4.90;;;;;;;6.13;77.81;100855.84;618548;229;24867;-73
2021/04/25 04:57:41;;;;;;;7.87;5.40;;;;;;;6.15;77.92;100861.72;614583;229;27006;-73
2021/04/25 05:00:10;;;;;;;8.10;5.47;;;;;;;6.17;78.12;100869.73;618302;230;28069;-73
2021/04/25 05:02:38;;;;;;;9.13;5.87;;;;;;;6.22;77.00;100876.73;631780;225;24848;-73
2021/04/25 05:05:07;;;;;;;10.43;5.77;;;;;;;6.31;76.74;100870.11;629001;225;24831;-73
2021/04/25 05:07:35;;;;;;;9.93;5.60;;;;;;;6.37;77.02;100869.72;634403;225;24860;-73
2021/04/25 05:10:03;;;;;;;8.17;5.37;;;;;;;6.36;76.64;100859.49;618341;230;24849;-73
2021/04/25 05:12:30;;;;;;;11.33;5.40;;;;;;;6.38;76.10;100862.33;621801;230;24930;-73
2021/04/25 05:14:59;;;;;;;8.53;4.40;;;;;;;6.46;76.48;100866.50;635178;225;24889;-73
2021/04/25 05:17:26;;;;;;;8.13;5.00;;;;;;;6.51;76.39;100868.80;636052;224;25133;-73
2021/04/25 05:19:54;;;;;;;9.30;5.30;;;;;;;6.60;76.01;100868.63;614579;225;32854;-73
2021/04/25 05:22:22;;;;;;;11.70;6.17;;;;;;;6.71;75.95;100865.69;625512;225;43669;-73
2021/04/25 05:24:50;;;;;;;9.70;5.20;;;;;;;6.68;76.02;100866.36;615134;229;26144;-73
2021/04/25 05:27:18;;;;;;;11.50;5.33;;;;;;;6.77;75.01;100871.75;614868;230;43769;-73
2021/04/25 05:29:46;;;;;;;10.00;5.80;;;;;;;6.81;75.40;100873.65;615128;230;24868;-73
2021/04/25 05:32:14;;;;;;;12.50;4.93;;;;;;;6.71;75.31;100870.03;634887;225;25978;-73
2021/04/25 05:34:42;;;;;;;9.23;6.10;;;;;;;6.72;75.06;100869.09;620878;229;24884;-73
2021/04/25 05:37:09;;;;;;;10.40;5.03;;;;;;;6.73;74.89;100872.86;635157;225;24795;-73
2021/04/25 05:39:37;;;;;;;12.20;5.67;;;;;;;6.87;75.35;100880.98;630866;221;32677;-74
2021/04/25 05:42:05;;;;;;;9.27;5.63;;;;;;;6.80;75.01;100881.05;630876;225;32700;-73
2021/04/25 05:44:33;;;;;;;7.60;4.80;;;;;;;6.99;74.20;100871.55;625725;229;24919;-73
2021/04/25 05:47:01;;;;;;;11.43;5.13;;;;;;;7.07;75.24;100886.09;620008;228;24880;-73
2021/04/25 05:49:29;;;;;;;11.33;4.60;;;;;;;7.29;73.82;100872.00;627428;228;24855;-73
2021/04/25 05:51:57;;;;;;;10.47;6.13;;;;;;;7.35;73.87;100881.11;627903;228;24855;-73
2021/04/25 05:54:25;;;;;;;10.00;5.13;;;;;;;7.37;73.91;100880.53;639006;225;24861;-73
2021/04/25 05:56:53;;;;;;;8.67;4.50;;;;;;;7.33;73.29;100886.87;619848;229;24868;-73
2021/04/25 05:59:20;;;;;;;10.13;5.40;;;;;;;7.53;73.67;100884.98;613613;229;32989;-74
2021/04/25 06:01:48;;;;;;;10.60;5.90;;;;;;;7.61;73.75;100886.56;622714;229;24902;-73
2021/04/25 06:04:16;;;;;;;8.23;4.60;;;;;;;7.77;72.66;100883.70;636046;224;26972;-74
2021/04/25 06:06:45;;;;;;;8.10;4.67;;;;;;;8.08;72.12;100887.48;637249;224;24845;-73
2021/04/25 06:09:12;;;;;;;11.50;5.27;;;;;;;7.84;71.59;100890.08;637258;221;24857;-73
2021/04/25 06:11:40;;;;;;;9.53;5.60;;;;;;;7.91;71.72;100889.19;620360;229;24864;-73
2021/04/25 06:14:08;;;;;;;12.70;5.10;;;;;;;8.00;71.05;100886.73;636071;225;26084;-73
2021/04/25 06:16:36;;;;;;;12.47;5.23;;;;;;;8.14;71.66;100881.83;637344;225;24885;-73
2021/04/25 06:19:04;;;;;;;6.00;4.43;;;;;;;8.20;71.06;100887.05;614480;229;24924;-74
2021/04/25 06:21:32;;;;;;;12.43;5.87;;;;;;;8.44;70.37;100887.00;629461;225;32689;-74
2021/04/25 06:23:59;;;;;;;9.13;5.37;;;;;;;8.59;71.47;100888.00;638361;224;28010;-73
2021/04/25 06:26:27;;;;;;;12.43;5.10;;;;;;;8.49;70.67;100892.69;635788;225;24849;-73
2021/04/25 06:28:55;;;;;;;10.20;5.10;;;;;;;8.54;70.20;100884.09;633935;225;24911;-73
2021/04/25 06:31:25;;;;;;;16.17;5.43;;;;;;;8.59;71.01;100885.41;630312;225;26055;-73
2021/04/25 06:33:51;;;;;;;6.20;4.60;;;;;;;8.78;70.18;100882.23;637171;225;31302;-73
2021/04/25 06:36:19;;;;;;;10.03;4.80;;;;;;;8.98;69.40;100883.29;637203;225;27022;-74
2021/04/25 06:38:46;;;;;;;7.63;5.07;;;;;;;9.12;68.68;100886.12;635455;225;25077;-73
2021/04/25 06:41:14;;;;;;;12.77;5.20;;;;;;;9.22;68.75;100885.77;637893;223;24868;-74
2021/04/25 06:43:42;;;;;;;11.10;5.07;;;;;;;9.15;68.57;100884.61;636369;225;24816;-74
2021/04/25 06:46:10;;;;;;;10.13;6.03;;;;;;;8.92;68.88;100887.20;637600;224;24847;-74
2021/04/25 06:48:38;;;;;;;11.60;5.40;;;;;;;9.09;69.40;100887.66;636653;225;31240;-74
2021/04/25 06:51:06;;;;;;;10.63;4.70;;;;;;;9.09;69.44;100879.88;637488;225;24854;-73
2021/04/25 06:53:34;;;;;;;10.20;5.40;;;;;;;9.41;70.43;100887.73;636491;225;24900;-74
2021/04/25 06:56:02;;;;;;;8.10;4.87;;;;;;;9.39;68.27;100877.94;620183;229;24892;-74
2021/04/25 06:58:30;;;;;;;10.63;4.67;;;;;;;9.35;67.72;100879.97;631096;224;25140;-73
2021/04/25 07:00:57;;;;;;;8.83;5.47;;;;;;;9.60;68.68;100875.44;637375;224;24844;-73
2021/04/25 07:03:25;;;;;;;12.07;5.10;;;;;;;9.68;68.00;100882.13;637766;223;24836;-73
2021/04/25 07:05:53;;;;;;;10.53;5.20;;;;;;;9.87;67.15;100878.41;631589;224;32680;-74
2021/04/25 07:08:24;;;;;;;10.05;5.90;;;;;;;10.12;66.83;100877.22;630623;224;32829;-73
2021/04/25 07:10:49;;;;;;;9.93;5.30;;;;;;;10.20;66.10;100872.70;638016;221;23973;-74
2021/04/25 07:13:17;;;;;;;9.68;5.90;;;;;;;10.56;66.22;100866.27;617967;229;33084;-74
2021/04/25 07:15:45;;;;;;;12.37;5.83;;;;;;;10.44;66.21;100873.78;628941;225;24837;-74
2021/04/25 07:18:13;;;;;;;10.83;5.70;;;;;;;10.31;66.89;100883.08;624810;228;24843;-74
2021/04/25 07:20:41;;;;;;;14.03;5.80;;;;;;;10.52;66.91;100874.78;621206;229;24843;-74
2021/04/25 07:23:08;;;;;;;10.50;5.30;;;;;;;10.42;65.26;100875.22;638713;224;24927;-74
2021/04/25 07:25:37;;;;;;;12.13;5.70;;;;;;;10.55;65.64;100872.39;613781;229;32869;-74
2021/04/25 07:28:05;;;;;;;8.73;5.87;;;;;;;10.55;66.62;100871.91;635361;225;24884;-74
2021/04/25 07:30:34;;;;;;;7.77;5.30;;;;;;;10.68;65.10;100859.52;636409;225;24843;-74
2021/04/25 07:33:02;;;;;;;10.07;6.17;;;;;;;10.64;64.55;100862.52;616399;229;25195;-74
2021/04/25 07:35:30;;;;;;;11.57;6.08;;;;;;;10.96;64.24;100855.88;611353;230;32947;-74
2021/04/25 07:37:58;;;;;;;10.40;6.30;;;;;;;10.82;64.63;100858.83;632531;225;23694;-74
2021/04/25 07:40:26;;;;;;;7.50;5.10;;;;;;;10.70;64.93;100859.42;637288;225;25381;-74
2021/04/25 07:42:54;;;;;;;11.03;6.60;;;;;;;10.82;64.83;100851.02;632523;225;40095;-74
2021/04/25 07:45:22;;;;;;;12.03;7.00;;;;;;;10.87;64.78;100851.48;626916;225;32886;-74
2021/04/25 07:47:50;;;;;;;10.23;5.80;;;;;;;11.02;65.02;100858.45;628218;225;23713;-74
2021/04/25 07:50:18;;;;;;;12.83;5.77;;;;;;;11.15;64.67;100849.45;625518;225;24836;-74
2021/04/25 07:52:46;;;;;;;11.13;6.33;;;;;;;11.33;64.06;100856.61;625431;225;24873;-74
2021/04/25 07:55:14;;;;;;;11.47;6.30;;;;;;;11.35;63.85;100850.78;622237;225;32860;-74
2021/04/25 07:57:42;;;;;;;11.20;5.92;;;;;;;11.67;63.25;100840.94;621173;225;32762;-74
2021/04/25 08:00:11;;;;;;;10.13;5.87;;;;;;;11.53;63.23;100846.06;632769;222;24042;-74
2021/04/25 08:02:39;;;;;;;14.30;6.57;;;;;;;11.56;63.52;100842.39;632403;225;32960;-75
2021/04/25 08:05:08;;;;;;;12.90;6.90;;;;;;;11.78;61.56;100842.59;632092;224;32771;-75
2021/04/25 08:07:36;;;;;;;12.33;6.65;;;;;;;11.85;62.51;100839.34;620327;230;33404;-74
2021/04/25 08:10:06;;;;;;;9.00;5.90;;;;;;;11.70;64.24;100839.38;621545;228;23722;-75
2021/04/25 08:12:33;;;;;;;12.40;6.37;;;;;;;11.76;62.95;100838.00;616963;226;24963;-74
2021/04/25 08:15:01;;;;;;;9.40;5.77;;;;;;;12.07;61.46;100834.30;640019;224;23880;-75
2021/04/25 08:17:29;;;;;;;8.80;6.40;;;;;;;12.47;63.07;100841.91;613005;229;32936;-74
2021/04/25 08:19:57;;;;;;;14.10;6.63;;;;;;;12.24;61.29;100841.88;637363;224;23822;-74
2021/04/25 08:22:24;;;;;;;13.20;7.00;;;;;;;12.21;63.03;100834.34;620469;229;24910;-72
2021/04/25 08:24:52;;;;;;;11.00;6.10;;;;;;;12.08;61.62;100837.25;626774;225;24812;-73
2021/04/25 08:27:20;;;;;;;10.57;6.17;;;;;;;12.33;62.01;100837.63;620352;229;24886;-72
2021/04/25 08:29:48;;;;;;;13.13;6.40;;;;;;;12.26;61.77;100839.16;637371;220;24817;-72
2021/04/25 08:32:16;;;;;;;9.57;6.80;;;;;;;12.40;60.92;100836.11;636468;225;25998;-72
2021/04/25 08:34:44;;;;;;;10.50;6.10;;;;;;;12.30;60.59;100843.13;619543;229;23912;-74
2021/04/25 08:37:12;;;;;;;10.80;7.10;;;;;;;12.60;61.64;100835.07;615263;229;33142;-75
2021/04/25 08:39:40;;;;;;;7.77;6.30;;;;;;;12.86;59.58;100835.73;618486;229;23764;-75
2021/04/25 08:42:08;;;;;;;11.28;7.35;;;;;;;13.17;60.85;100833.16;629446;225;43684;-72
2021/04/25 08:44:36;;;;;;;9.20;6.10;;;;;;;13.04;60.08;100836.11;620276;230;23866;-72
2021/04/25 08:47:03;;;;;;;8.63;5.70;;;;;;;12.89;60.10;100835.44;617956;229;24921;-74
2021/04/25 08:49:31;;;;;;;14.10;7.00;;;;;;;12.98;59.83;100832.78;621769;229;23943;-74
2021/04/25 08:51:59;;;;;;;11.20;6.07;;;;;;;12.95;58.75;100831.78;638331;224;24851;-72
2021/04/25 08:54:27;;;;;;;10.23;6.03;;;;;;;12.82;58.92;100831.77;639695;224;24851;-72
2021/04/25 08:56:56;;;;;;;11.43;6.50;;;;;;;12.86;59.61;100839.16;634652;225;24826;-72
2021/04/25 08:59:23;;;;;;;12.37;6.27;;;;;;;12.89;60.41;100817.98;621371;229;24894;-72
2021/04/25 09:01:51;;;;;;;11.70;6.40;;;;;;;13.25;59.38;100824.14;636172;225;24837;-74
2021/04/25 09:04:19;;;;;;;12.37;6.50;;;;;;;13.22;58.10;100825.72;631415;225;24886;-72
2021/04/25 09:07:00;;;;;;;10.27;6.73;;;;;;;12.96;57.03;100820.36;625460;226;24837;-74
2021/04/25 09:09:42;;;;;;;13.63;6.97;;;;;;;13.20;59.11;100819.00;628286;226;24824;-74
2021/04/25 09:12:11;;;;;;;11.25;7.15;;;;;;;13.71;58.20;100817.55;622765;228;32906;-72
2021/04/25 09:14:39;;;;;;;11.87;6.17;;;;;;;13.99;57.35;100812.55;637353;225;23695;-72
2021/04/25 09:17:07;;;;;;;12.70;5.50;;;;;;;14.04;57.42;100804.23;638667;223;24882;-72
2021/04/25 09:19:48;;;;;;;11.30;6.97;;;;;;;14.19;57.60;100808.75;635948;222;26049;-72
2021/04/25 09:22:16;;;;;;;6.93;5.50;;;;;;;14.41;56.13;100796.95;632492;225;24894;-72
2021/04/25 09:24:44;;;;;;;10.27;6.00;;;;;;;14.41;57.22;100797.44;632058;225;24875;-72
2021/04/25 09:27:12;;;;;;;11.33;6.27;;;;;;;14.41;53.59;100783.05;619335;229;24914;-72
2021/04/25 09:29:48;;;;;;;12.10;5.70;;;;;;;14.24;53.99;100778.22;621979;229;27080;-72
2021/04/25 09:32:17;;;;;;;9.43;6.00;;;;;;;14.50;56.38;100776.92;617526;229;24906;-72
2021/04/25 09:34:45;;;;;;;12.30;6.30;;;;;;;14.98;55.88;100786.73;620017;229;24929;-72
2021/04/25 09:37:14;;;;;;;8.67;5.20;;;;;;;14.76;52.86;100763.73;617146;229;24860;-72
2021/04/25 09:39:59;;;;;;;6.90;4.60;;;;;;;14.84;52.20;100764.59;617886;225;24865;-73
2021/04/25 09:42:27;;;;;;;9.47;5.60;;;;;;;14.55;53.65;100765.48;635348;225;24169;-73
2021/04/25 09:44:55;;;;;;;8.95;5.60;;;;;;;14.39;52.58;100747.05;631260;225;43849;-72
2021/04/25 09:47:31;;;;;;;6.03;4.90;;;;;;;14.62;51.88;100756.00;621687;230;23744;-72
2021/04/25 09:50:00;;;;;;;9.00;5.00;;;;;;;13.88;52.08;100750.02;637299;222;24964;-72
2021/04/25 09:52:35;;;;;;;10.33;4.80;;;;;;;14.79;51.40;100749.86;622771;229;26075;-72
2021/04/25 09:55:15;;;;;;;9.27;4.77;;;;;;;14.84;51.75;100744.14;616708;229;23930;-72
2021/04/25 09:57:43;;;;;;;13.23;5.80;;;;;;;15.08;50.88;100735.03;618166;229;24906;-72
2021/04/25 10:00:12;;;;;;;7.93;5.77;;;;;;;14.74;52.19;100739.52;638560;220;24795;-72
2021/04/25 10:02:54;;;;;;;7.30;5.67;;;;;;;14.52;52.54;100741.75;629168;225;24860;-72
2021/04/25 10:05:22;;;;;;;9.80;5.20;;;;;;;14.80;51.83;100739.72;634340;225;24833;-72
2021/04/25 10:07:50;;;;;;;8.97;6.00;;;;;;;14.85;52.23;100740.05;620052;228;24902;-72
2021/04/25 10:10:19;;;;;;;6.30;4.80;;;;;;;14.93;51.12;100735.33;635219;221;28056;-72
2021/04/25 10:12:47;;;;;;;11.47;5.50;;;;;;;14.91;51.65;100728.59;614737;229;24847;-73
2021/04/25 10:15:16;;;;;;;8.53;5.40;;;;;;;15.03;52.72;100730.75;620212;229;23913;-72
2021/04/25 10:17:44;;;;;;;6.63;4.70;;;;;;;15.20;51.80;100732.92;625637;228;24951;-72
2021/04/25 10:20:13;;;;;;;7.83;4.50;;;;;;;15.12;49.98;100723.73;623889;229;24899;-72
2021/04/25 10:22:44;;;;;;;8.73;5.57;;;;;;;15.36;48.78;100721.14;635466;225;24826;-73
2021/04/25 10:25:13;;;;;;;9.67;5.77;;;;;;;15.39;51.31;100716.87;613414;229;25287;-72
2021/04/25 10:27:43;;;;;;;8.20;5.37;;;;;;;15.24;51.87;100728.98;635751;224;24862;-72
2021/04/25 10:30:12;;;;;;;10.27;5.57;;;;;;;15.09;52.01;100734.54;616146;230;32901;-72
2021/04/25 10:32:42;;;;;;;8.00;5.97;;;;;;;15.17;51.04;100729.78;638714;222;24833;-72
2021/04/25 10:35:14;;;;;;;13.70;6.50;;;;;;;15.31;53.60;100732.58;622357;228;24201;-71
2021/04/25 10:37:42;;;;;;;8.00;5.33;;;;;;;15.79;48.58;100719.66;626043;228;23880;-73
2021/04/25 10:40:28;;;;;;;13.53;5.40;;;;;;;15.92;48.32;100723.41;624810;225;33116;-72
2021/04/25 10:42:58;;;;;;;7.70;5.73;;;;;;;15.81;50.45;100718.51;633534;224;28003;-72
2021/04/25 10:45:29;;;;;;;6.40;5.27;;;;;;;15.86;48.69;100716.19;632872;225;23873;-73
2021/04/25 10:48:26;;;;;;;6.80;4.50;;;;;;;15.73;48.99;100718.50;633792;221;23890;-73
2021/04/25 10:50:54;;;;;;;6.47;4.20;;;;;;;15.53;48.52;100710.64;631867;225;24839;-73
2021/04/25 10:53:23;;;;;;;9.63;5.03;;;;;;;15.31;48.83;100709.48;639229;224;25059;-73
2021/04/25 10:55:51;;;;;;;10.90;5.60;;;;;;;15.76;48.54;100705.05;632187;224;32814;-75
2021/04/25 10:58:22;;;;;;;6.93;4.77;;;;;;;15.70;49.92;100703.11;636175;225;23714;-72
2021/04/25 11:00:50;;;;;;;8.70;5.03;;;;;;;16.28;49.09;100690.97;630590;225;32380;-74
2021/04/25 11:03:39;;;;;;;7.70;5.83;;;;;;;15.80;47.91;100688.02;630982;225;23824;-74
2021/04/25 11:06:20;;;;;;;12.70;6.17;;;;;;;15.95;48.63;100688.15;627263;227;24840;-73
2021/04/25 11:08:48;;;;;;;10.27;6.03;;;;;;;15.95;49.29;100682.41;626365;228;24867;-75
2021/04/25 11:11:16;;;;;;;7.63;4.53;;;;;;;16.08;48.77;100696.80;636877;225;23940;-74
2021/04/25 11:13:44;;;;;;;11.08;5.67;;;;;;;15.98;48.83;100680.75;631655;225;32657;-75
2021/04/25 11:16:25;;;;;;;8.60;5.27;;;;;;;15.81;48.72;100677.85;631599;225;23684;-73
2021/04/25 11:18:53;;;;;;;7.23;4.80;;;;;;;15.81;49.32;100680.47;623246;229;24922;-73
2021/04/25 11:21:47;;;;;;;10.47;5.93;;;;;;;15.88;50.50;100678.80;634802;225;23797;-73
2021/04/25 11:24:37;;;;;;;10.30;6.00;;;;;;;15.97;50.19;100680.92;636909;225;23836;-73
2021/04/25 11:27:06;;;;;;;11.60;5.70;;;;;;;15.70;49.18;100682.13;632508;225;23816;-72
2021/04/25 11:29:45;;;;;;;9.80;5.40;;;;;;;15.98;49.51;100682.55;636905;225;23868;-73
2021/04/25 11:32:24;;;;;;;8.60;4.50;;;;;;;16.41;48.69;100678.61;635972;225;23820;-74
2021/04/25 11:34:57;;;;;;;7.70;4.63;;;;;;;16.36;44.95;100656.00;620039;229;23888;-73